.
WxDataArchive / Data Records for 2014-01-24
2014-01-23 January 2014 2014-01-25

Data Records for Friday, 24 January 2014

Time	Temp	Chill	HIndex	Humid	Dewpt	 Wind 	HiWind	WindDir	Rain 	Barom 
-----	----	-----	------	-----	-----	------	------	-------	-----	----- 
00:00	0.3	0.3	0.3	71	-6.8	1	3	248	0.00	30.580 
00:05	0.3	0.3	0.3	71	-6.8	1	4	248	0.00	30.580 
00:10	0.1	0.1	0.1	70	-7.3	1	4	248	0.00	30.580 
00:15	0.1	0.1	0.1	70	-7.3	1	4	270	0.00	30.577 
00:20	0.0	0.0	0.0	70	-7.4	1	3	270	0.00	30.577 
00:25	0.0	0.0	0.0	70	-7.4	1	3	270	0.00	30.577 
00:30	-0.2	-0.2	-0.2	70	-7.6	1	4	270	0.00	30.572 
00:35	-0.4	-0.4	-0.4	70	-7.8	1	4	270	0.00	30.572 
00:40	-0.4	-0.4	-0.4	70	-7.8	1	3	270	0.00	30.572 
00:45	-0.6	-0.6	-0.6	70	-8.0	1	4	270	0.00	30.572 
00:50	-0.6	-0.6	-0.6	70	-8.0	1	5	248	0.00	30.572 
00:55	-0.8	-0.8	-0.8	70	-8.2	1	5	270	0.00	30.572 
01:00	-0.8	-0.8	-0.8	70	-8.2	1	5	248	0.00	30.570 
01:05	-1.0	-1.0	-1.0	70	-8.4	1	3	248	0.00	30.570 
01:10	-1.0	-1.0	-1.0	70	-8.4	1	4	248	0.00	30.570 
01:15	-1.0	-1.0	-1.0	70	-8.4	1	3	248	0.00	30.565 
01:20	-1.2	-1.2	-1.2	70	-8.6	1	2	248	0.00	30.565 
01:25	-1.2	-1.2	-1.2	70	-8.6	1	3	248	0.00	30.565 
01:30	-1.2	-1.2	-1.2	70	-8.6	1	3	248	0.00	30.559 
01:35	-1.4	-1.4	-1.4	71	-8.5	1	3	248	0.00	30.559 
01:40	-1.4	-1.4	-1.4	70	-8.8	0	2	248	0.00	30.559 
01:45	-1.6	-1.6	-1.6	70	-9.0	0	3	248	0.00	30.558 
01:50	-1.6	-1.6	-1.6	71	-8.7	0	3	248	0.00	30.558 
01:55	-1.8	-1.8	-1.8	71	-8.9	1	6	248	0.00	30.558 
02:00	-1.8	-1.8	-1.8	71	-8.9	1	4	248	0.00	30.556 
02:05	-1.8	-1.8	-1.8	71	-8.9	0	3	248	0.00	30.556 
02:10	-2.0	-2.0	-2.0	71	-9.1	1	3	248	0.00	30.556 
02:15	-2.0	-2.0	-2.0	71	-9.1	1	4	248	0.00	30.563 
02:20	-2.0	-2.0	-2.0	71	-9.1	1	3	248	0.00	30.563 
02:25	-2.2	-2.2	-2.2	71	-9.3	1	3	248	0.00	30.563 
02:30	-2.4	-2.4	-2.4	71	-9.4	1	4	248	0.00	30.564 
02:35	-2.4	-2.4	-2.4	71	-9.4	1	4	248	0.00	30.564 
02:40	-2.6	-2.6	-2.6	71	-9.6	1	4	248	0.00	30.564 
02:45	-2.8	-2.8	-2.8	71	-9.8	1	3	248	0.00	30.570 
02:50	-2.8	-2.8	-2.8	71	-9.8	1	5	248	0.00	30.570 
02:55	-2.8	-2.8	-2.8	71	-9.8	1	4	248	0.00	30.570 
03:00	-3.1	-3.1	-3.1	71	-10.1	1	3	248	0.00	30.569 
03:05	-3.1	-3.1	-3.1	71	-10.1	1	3	248	0.00	30.569 
03:10	-3.3	-3.3	-3.3	71	-10.3	1	5	248	0.00	30.569 
03:15	-3.3	-3.3	-3.3	70	-10.6	1	3	248	0.00	30.568 
03:20	-3.3	-3.3	-3.3	70	-10.6	1	3	248	0.00	30.568 
03:25	-3.5	-3.5	-3.5	70	-10.8	1	3	248	0.00	30.568 
03:30	-3.5	-3.5	-3.5	70	-10.8	0	2	248	0.00	30.562 
03:35	-3.7	-3.7	-3.7	70	-11.0	1	3	248	0.00	30.562 
03:40	-3.7	-3.7	-3.7	70	-11.0	0	3	248	0.00	30.562 
03:45	-3.9	-3.9	-3.9	70	-11.2	1	4	248	0.00	30.561 
03:50	-3.9	-3.9	-3.9	70	-11.2	1	3	248	0.00	30.561 
03:55	-3.9	-3.9	-3.9	70	-11.2	0	3	248	0.00	30.561 
04:00	-4.1	-4.1	-4.1	70	-11.4	1	4	248	0.00	30.560 
04:05	-4.1	-4.1	-4.1	70	-11.4	1	4	248	0.00	30.560 
04:10	-4.1	-4.1	-4.1	70	-11.4	1	3	248	0.00	30.560 
04:15	-4.3	-4.3	-4.3	70	-11.6	1	2	248	0.00	30.557 
04:20	-4.3	-4.3	-4.3	70	-11.6	1	2	248	0.00	30.557 
04:25	-4.3	-4.3	-4.3	70	-11.6	0	3	248	0.00	30.557 
04:30	-4.6	-4.6	-4.6	70	-11.9	0	2	248	0.00	30.549 
04:35	-4.6	-4.6	-4.6	70	-11.9	1	4	248	0.00	30.549 
04:40	-4.6	-4.6	-4.6	70	-11.9	1	2	248	0.00	30.549 
04:45	-4.6	-4.6	-4.6	70	-11.9	1	4	248	0.00	30.545 
04:50	-4.6	-4.6	-4.6	70	-11.9	1	3	248	0.00	30.545 
04:55	-4.6	-4.6	-4.6	70	-11.9	1	3	248	0.00	30.545 
05:00	-4.6	-4.6	-4.6	70	-11.9	0	4	248	0.00	30.555 
05:05	-4.6	-4.6	-4.6	70	-11.9	1	4	248	0.00	30.555 
05:10	-4.8	-4.8	-4.8	70	-12.0	1	3	248	0.00	30.555 
05:15	-4.8	-4.8	-4.8	70	-12.0	1	4	248	0.00	30.552 
05:20	-4.8	-4.8	-4.8	70	-12.0	1	2	248	0.00	30.552 
05:25	-4.8	-4.8	-4.8	70	-12.0	1	2	248	0.00	30.552 
05:30	-5.0	-5.0	-5.0	69	-12.5	0	2	248	0.00	30.541 
05:35	-5.0	-5.0	-5.0	69	-12.5	0	3	248	0.00	30.541 
05:40	-5.0	-5.0	-5.0	70	-12.2	1	2	248	0.00	30.541 
05:45	-5.0	-5.0	-5.0	70	-12.2	1	3	248	0.00	30.531 
05:50	-5.2	-5.2	-5.2	69	-12.7	0	3	248	0.00	30.531 
05:55	-5.2	-5.2	-5.2	69	-12.7	0	3	248	0.00	30.531 
06:00	-5.2	-5.2	-5.2	69	-12.7	0	2	248	0.00	30.524 
06:05	-5.4	-5.4	-5.4	69	-12.9	0	2	248	0.00	30.524 
06:10	-5.4	-5.4	-5.4	69	-12.9	1	5	248	0.00	30.524 
06:15	-5.4	-5.4	-5.4	69	-12.9	0	2	248	0.00	30.520 
06:20	-5.4	-5.4	-5.4	69	-12.9	0	3	248	0.00	30.520 
06:25	-5.4	-5.4	-5.4	69	-12.9	0	2	248	0.00	30.520 
06:30	-5.6	-5.6	-5.6	69	-13.1	0	2	248	0.00	30.516 
06:35	-5.6	-5.6	-5.6	69	-13.1	1	3	248	0.00	30.516 
06:40	-5.6	-5.6	-5.6	69	-13.1	1	4	248	0.00	30.516 
06:45	-5.4	-5.4	-5.4	69	-12.9	1	3	248	0.00	30.517 
06:50	-5.4	-5.4	-5.4	69	-12.9	1	3	248	0.00	30.517 
06:55	-5.4	-5.4	-5.4	69	-12.9	0	2	248	0.00	30.517 
07:00	-5.4	-5.4	-5.4	69	-12.9	0	2	248	0.00	30.508 
07:05	-5.4	-5.4	-5.4	69	-12.9	0	3	248	0.00	30.508 
07:10	-5.4	-5.4	-5.4	69	-12.9	0	4	248	0.00	30.508 
07:15	-5.4	-5.4	-5.4	69	-12.9	0	3	248	0.00	30.502 
07:20	-5.4	-5.4	-5.4	69	-12.9	0	2	248	0.00	30.502 
07:25	-5.4	-5.4	-5.4	69	-12.9	1	4	248	0.00	30.502 
07:30	-5.2	-5.2	-5.2	69	-12.7	1	4	248	0.00	30.500 
07:35	-5.2	-5.2	-5.2	69	-12.7	0	2	248	0.00	30.500 
07:40	-5.2	-5.2	-5.2	69	-12.7	0	2	248	0.00	30.500 
07:45	-5.2	-5.2	-5.2	69	-12.7	0	2	248	0.00	30.490 
07:50	-5.4	-5.4	-5.4	69	-12.9	0	3	248	0.00	30.490 
07:55	-5.4	-5.4	-5.4	69	-12.9	0	1	248	0.00	30.490 
08:00	-5.4	-5.4	-5.4	69	-12.9	0	3	248	0.00	30.478 
08:05	-5.4	-5.4	-5.4	69	-12.9	0	2	248	0.00	30.478 
08:10	-5.4	-5.4	-5.4	69	-12.9	0	1	248	0.00	30.478 
08:15	-5.4	-5.4	-5.4	69	-12.9	0	2	248	0.00	30.471 
08:20	-5.2	-5.2	-5.2	69	-12.7	0	2	248	0.00	30.471 
08:25	-5.2	-5.2	-5.2	69	-12.7	0	2	248	0.00	30.471 
08:30	-4.8	-4.8	-4.8	69	-12.3	0	3	248	0.00	30.469 
08:35	-4.6	-4.6	-4.6	69	-12.1	0	3	248	0.00	30.469 
08:40	-4.1	-4.1	-4.1	69	-11.7	0	2	248	0.00	30.469 
08:45	-3.9	-3.9	-3.9	68	-11.8	1	3	248	0.00	30.455 
08:50	-3.5	-3.5	-3.5	68	-11.4	1	3	248	0.00	30.455 
08:55	-2.8	-2.8	-2.8	68	-10.7	0	2	248	0.00	30.455 
09:00	-2.6	-2.6	-2.6	67	-10.8	1	5	248	0.00	30.441 
09:05	-2.2	-2.2	-2.2	67	-10.4	1	3	248	0.00	30.441 
09:10	-2.0	-2.0	-2.0	66	-10.5	0	4	248	0.00	30.441 
09:15	-1.8	-1.8	-1.8	66	-10.3	1	3	248	0.00	30.431 
09:20	-1.6	-1.6	-1.6	66	-10.2	1	5	248	0.00	30.431 
09:25	-1.2	-1.2	-1.2	66	-9.8	1	5	248	0.00	30.431 
09:30	-1.0	-1.0	-1.0	65	-9.9	1	5	248	0.00	30.412 
09:35	-0.8	-0.8	-0.8	65	-9.7	1	5	248	0.00	30.412 
09:40	-0.4	-0.4	-0.4	65	-9.3	1	3	248	0.00	30.412 
09:45	-0.2	-0.2	-0.2	65	-9.1	1	6	248	0.00	30.407 
09:50	0.0	0.0	0.0	64	-9.2	1	7	248	0.00	30.407 
09:55	0.1	0.1	0.1	64	-9.1	1	4	248	0.00	30.407 
10:00	0.1	0.1	0.1	64	-9.1	2	5	248	0.00	30.398 
10:05	0.1	0.1	0.1	64	-9.1	1	4	248	0.00	30.398 
10:10	0.5	0.5	0.5	64	-8.8	1	5	248	0.00	30.398 
10:15	0.9	0.9	0.9	64	-8.4	1	5	248	0.00	30.397 
10:20	1.3	1.3	1.3	63	-8.3	1	4	270	0.00	30.397 
10:25	1.7	1.7	1.7	63	-7.9	1	4	248	0.00	30.397 
10:30	1.8	1.8	1.8	62	-8.2	1	7	270	0.00	30.379 
10:35	2.0	2.0	2.0	62	-8.0	1	5	248	0.00	30.379 
10:40	2.4	2.4	2.4	62	-7.6	2	7	248	0.00	30.379 
10:45	2.6	2.6	2.6	61	-7.7	2	11	270	0.00	30.368 
10:50	2.6	2.6	2.6	61	-7.7	2	7	248	0.00	30.368 
10:55	2.6	2.6	2.6	61	-7.7	3	11	248	0.00	30.368 
11:00	2.8	2.8	2.8	61	-7.6	2	5	248	0.00	30.366 
11:05	3.0	3.0	3.0	60	-7.7	3	7	248	0.00	30.366 
11:10	3.2	3.2	3.2	61	-7.2	2	11	225	0.00	30.366 
11:15	3.4	3.4	3.4	61	-7.0	2	6	248	0.00	30.354 
11:20	3.7	3.7	3.7	61	-6.7	2	10	248	0.00	30.354 
11:25	4.3	4.3	4.3	60	-6.5	3	10	248	0.00	30.354 
11:30	4.8	4.8	4.8	60	-6.0	2	7	248	0.00	30.335 
11:35	5.2	5.2	5.2	60	-5.6	1	4	225	0.00	30.335 
11:40	5.4	5.4	5.4	59	-5.8	2	6	248	0.00	30.335 
11:45	5.6	5.6	5.6	59	-5.6	2	6	270	0.00	30.324 
11:50	6.0	6.0	6.0	59	-5.2	1	3	270	0.00	30.324 
11:55	6.0	6.0	6.0	58	-5.6	3	6	248	0.00	30.324 
12:00	5.8	5.8	5.8	58	-5.8	2	7	248	0.00	30.305 
12:05	5.8	5.8	5.8	58	-5.8	3	12	270	0.00	30.305 
12:10	6.0	6.0	6.0	58	-5.6	2	12	248	0.00	30.305 
12:15	6.1	6.1	6.1	58	-5.5	3	11	248	0.00	30.273 
12:20	6.5	6.5	6.5	58	-5.1	3	12	270	0.00	30.273 
12:25	6.9	6.9	6.9	58	-4.7	2	11	248	0.00	30.273 
12:30	7.2	7.2	7.2	57	-4.8	3	11	248	0.00	30.263 
12:35	7.4	7.4	7.4	57	-4.6	3	11	248	0.00	30.263 
12:40	7.7	0.0	7.7	57	-4.3	4	11	248	0.00	30.263 
12:45	7.9	7.9	7.9	58	-3.8	2	10	248	0.00	30.224 
12:50	8.1	8.1	8.1	56	-4.3	3	13	248	0.00	30.224 
12:55	8.1	8.1	8.1	57	-3.9	3	13	270	0.00	30.224 
13:00	8.3	8.3	8.3	57	-3.8	2	6	248	0.00	30.206 
13:05	8.6	8.6	8.6	57	-3.5	2	6	248	0.00	30.206 
13:10	9.0	9.0	9.0	56	-3.5	3	12	248	0.00	30.206 
13:15	9.0	1.5	9.0	56	-3.5	4	11	248	0.00	30.178 
13:20	9.0	9.0	9.0	56	-3.5	3	12	248	0.00	30.178 
13:25	9.2	1.7	9.2	56	-3.3	4	11	248	0.00	30.178 
13:30	9.2	1.7	9.2	56	-3.3	4	14	248	0.00	30.160 
13:35	9.7	9.7	9.7	57	-2.4	3	12	248	0.00	30.160 
13:40	9.9	2.5	9.9	56	-2.6	4	13	270	0.00	30.160 
13:45	9.9	9.9	9.9	55	-3.0	3	12	248	0.00	30.141 
13:50	10.0	2.7	10.0	55	-2.9	4	12	248	0.00	30.141 
13:55	9.9	2.5	9.9	55	-3.0	4	11	248	0.00	30.141 
14:00	9.9	2.5	9.9	55	-3.0	4	15	248	0.00	30.125 
14:05	10.0	10.0	10.0	55	-2.9	3	10	248	0.00	30.125 
14:10	10.0	2.7	10.0	55	-2.9	4	14	248	0.00	30.125 
14:15	10.2	10.2	10.2	55	-2.7	3	11	248	0.00	30.099 
14:20	10.5	10.5	10.5	56	-2.1	2	4	248	0.00	30.099 
14:25	10.9	10.9	10.9	55	-2.1	2	7	248	0.00	30.099 
14:30	11.2	11.2	11.2	55	-1.8	3	13	248	0.00	30.074 
14:35	11.4	11.4	11.4	56	-1.2	2	6	248	0.00	30.074 
14:40	11.6	11.6	11.6	56	-1.0	2	12	248	0.00	30.074 
14:45	11.6	11.6	11.6	56	-1.0	2	6	270	0.00	30.063 
14:50	11.6	11.6	11.6	57	-0.6	2	10	248	0.00	30.063 
14:55	11.6	11.6	11.6	57	-0.6	3	7	248	0.00	30.063 
15:00	11.4	11.4	11.4	56	-1.2	3	9	248	0.00	30.047 
15:05	11.4	11.4	11.4	56	-1.2	3	12	248	0.00	30.047 
15:10	11.6	11.6	11.6	57	-0.6	1	6	248	0.00	30.047 
15:15	11.7	11.7	11.7	57	-0.6	3	10	248	0.00	30.028 
15:20	11.7	11.7	11.7	57	-0.6	3	11	248	0.00	30.028 
15:25	11.9	11.9	11.9	57	-0.4	2	12	248	0.00	30.028 
15:30	12.1	12.1	12.1	57	-0.2	2	6	270	0.00	30.015 
15:35	12.4	12.4	12.4	57	0.1	1	5	248	0.00	30.015 
15:40	12.6	12.6	12.6	56	-0.1	2	12	248	0.00	30.015 
15:45	12.9	12.9	12.9	56	0.2	2	6	248	0.00	29.997 
15:50	13.1	13.1	13.1	55	0.0	2	6	248	0.00	29.997 
15:55	13.3	13.3	13.3	55	0.2	3	7	248	0.00	29.997 
16:00	13.3	13.3	13.3	55	0.2	2	5	248	0.00	29.995 
16:05	13.5	13.5	13.5	54	-0.0	3	9	248	0.00	29.995 
16:10	13.6	13.6	13.6	54	0.1	2	11	248	0.00	29.995 
16:15	13.8	13.8	13.8	55	0.7	1	4	248	0.00	29.971 
16:20	13.8	13.8	13.8	55	0.7	2	7	248	0.00	29.971 
16:25	14.0	14.0	14.0	56	1.2	2	12	248	0.00	29.971 
16:30	14.0	14.0	14.0	55	0.8	2	11	248	0.00	29.957 
16:35	14.0	14.0	14.0	55	0.8	3	12	248	0.00	29.957 
16:40	14.1	14.1	14.1	55	0.9	2	10	248	0.00	29.957 
16:45	14.1	14.1	14.1	55	0.9	1	5	292	0.00	29.947 
16:50	14.3	14.3	14.3	56	1.5	1	5	248	0.00	29.947 
16:55	14.3	14.3	14.3	56	1.5	2	9	270	0.00	29.947 
17:00	14.3	14.3	14.3	56	1.5	1	4	248	0.00	29.950 
17:05	14.3	14.3	14.3	57	1.9	1	8	248	0.00	29.950 
17:10	14.1	14.1	14.1	57	1.7	1	6	248	0.00	29.950 
17:15	14.1	14.1	14.1	58	2.1	1	4	270	0.00	29.944 
17:20	14.1	14.1	14.1	58	2.1	1	4	248	0.00	29.944 
17:25	14.1	14.1	14.1	58	2.1	1	6	248	0.00	29.944 
17:30	14.1	14.1	14.1	58	2.1	1	6	248	0.00	29.935 
17:35	14.3	14.3	14.3	58	2.3	1	6	248	0.00	29.935 
17:40	14.3	14.3	14.3	58	2.3	1	4	248	0.00	29.935 
17:45	14.4	14.4	14.4	58	2.4	1	6	270	0.00	29.937 
17:50	14.6	14.6	14.6	58	2.5	2	6	248	0.00	29.937 
17:55	14.8	14.8	14.8	58	2.7	0	3	270	0.00	29.937 
18:00	14.8	14.8	14.8	58	2.7	1	6	248	0.00	29.932 
18:05	14.9	14.9	14.9	58	2.8	1	5	248	0.00	29.932 
18:10	15.1	15.1	15.1	58	3.0	1	7	248	0.00	29.932 
18:15	15.2	15.2	15.2	57	2.7	2	6	248	0.00	29.929 
18:20	15.4	15.4	15.4	56	2.5	2	9	248	0.00	29.929 
18:25	15.4	15.4	15.4	57	2.9	1	8	248	0.00	29.929 
18:30	15.6	15.6	15.6	57	3.1	1	4	270	0.00	29.919 
18:35	15.7	15.7	15.7	56	2.8	1	6	248	0.00	29.919 
18:40	15.9	15.9	15.9	56	3.0	1	4	248	0.00	29.919 
18:45	15.9	15.9	15.9	56	3.0	1	4	248	0.00	29.913 
18:50	16.1	16.1	16.1	55	2.8	1	7	248	0.00	29.913 
18:55	16.2	16.2	16.2	56	3.3	1	5	248	0.00	29.913 
19:00	16.4	16.4	16.4	55	3.1	1	6	248	0.00	29.916 
19:05	16.4	16.4	16.4	55	3.1	1	9	248	0.00	29.916 
19:10	16.5	16.5	16.5	55	3.2	1	4	248	0.00	29.916 
19:15	16.5	16.5	16.5	55	3.2	1	7	248	0.00	29.905 
19:20	16.5	16.5	16.5	55	3.2	1	6	248	0.00	29.905 
19:25	16.7	16.7	16.7	55	3.4	1	4	248	0.00	29.905 
19:30	16.7	16.7	16.7	55	3.4	2	7	248	0.00	29.896 
19:35	16.7	16.7	16.7	55	3.4	2	10	248	0.00	29.896 
19:40	16.7	16.7	16.7	55	3.4	1	4	248	0.00	29.896 
19:45	16.9	16.9	16.9	56	4.0	2	6	248	0.00	29.886 
19:50	16.9	16.9	16.9	56	4.0	1	4	248	0.00	29.886 
19:55	16.9	16.9	16.9	56	4.0	1	7	270	0.00	29.886 
20:00	16.9	16.9	16.9	56	4.0	1	4	90	0.00	29.869 
20:05	16.9	16.9	16.9	56	4.0	1	5	270	0.00	29.869 
20:10	16.9	16.9	16.9	56	4.0	2	5	248	0.00	29.869 
20:15	17.0	17.0	17.0	56	4.0	2	7	248	0.00	29.855 
20:20	17.2	17.2	17.2	56	4.2	2	9	248	0.00	29.855 
20:25	17.2	17.2	17.2	56	4.2	2	10	248	0.00	29.855 
20:30	17.3	17.3	17.3	56	4.3	2	6	248	0.00	29.850 
20:35	17.3	17.3	17.3	56	4.3	1	4	225	0.00	29.850 
20:40	17.5	17.5	17.5	56	4.5	2	11	248	0.00	29.850 
20:45	17.7	17.7	17.7	57	5.1	1	7	248	0.00	29.845 
20:50	17.8	17.8	17.8	57	5.2	2	6	248	0.00	29.845 
20:55	17.8	17.8	17.8	58	5.6	1	4	248	0.00	29.845 
21:00	18.0	18.0	18.0	58	5.7	1	4	248	0.00	29.833 
21:05	18.0	18.0	18.0	58	5.7	1	5	248	0.00	29.833 
21:10	18.1	18.1	18.1	57	5.5	1	6	248	0.00	29.833 
21:15	18.3	18.3	18.3	60	6.8	2	12	248	0.00	29.819 
21:20	18.4	18.4	18.4	63	7.9	3	9	248	0.00	29.819 
21:25	18.4	18.4	18.4	66	9.0	3	10	248	0.00	29.819 
21:30	18.4	18.4	18.4	68	9.6	2	8	248	0.00	29.813 
21:35	18.1	12.0	18.1	71	10.3	4	9	248	0.00	29.813 
21:40	18.1	18.1	18.1	73	10.9	3	14	248	0.00	29.813 
21:45	18.0	11.9	18.0	75	11.4	4	15	248	0.00	29.801 
21:50	18.0	11.9	18.0	77	12.0	4	13	248	0.00	29.801 
21:55	17.8	10.4	17.8	77	11.8	5	13	248	0.00	29.801 
22:00	17.8	17.8	17.8	78	12.1	2	9	248	0.00	29.789 
22:05	17.8	17.8	17.8	78	12.1	3	13	248	0.00	29.789 
22:10	17.7	17.7	17.7	79	12.3	2	5	248	0.00	29.789 
22:15	17.7	17.7	17.7	80	12.6	3	9	248	0.00	29.767 
22:20	17.7	17.7	17.7	80	12.6	3	11	248	0.00	29.767 
22:25	17.7	17.7	17.7	81	12.9	3	7	248	0.00	29.767 
22:30	17.7	17.7	17.7	81	12.9	3	9	248	0.00	29.749 
22:35	17.7	17.7	17.7	82	13.2	3	7	248	0.00	29.749 
22:40	17.7	17.7	17.7	82	13.2	3	11	248	0.00	29.749 
22:45	17.8	17.8	17.8	82	13.3	3	9	248	0.00	29.734 
22:50	17.8	17.8	17.8	83	13.5	3	7	248	0.00	29.734 
22:55	18.0	18.0	18.0	83	13.7	3	9	248	0.00	29.734 
23:00	18.0	18.0	18.0	83	13.7	3	11	248	0.00	29.716 
23:05	18.0	18.0	18.0	84	14.0	3	7	248	0.00	29.716 
23:10	18.1	18.1	18.1	84	14.1	3	11	248	0.00	29.716 
23:15	18.1	12.0	18.1	84	14.1	4	13	248	0.00	29.698 
23:20	18.1	18.1	18.1	84	14.1	3	7	248	0.00	29.698 
23:25	18.3	18.3	18.3	85	14.6	2	6	248	0.00	29.698 
23:30	18.3	18.3	18.3	85	14.6	2	5	248	0.00	29.685 
23:35	18.3	18.3	18.3	85	14.6	3	12	248	0.00	29.685 
23:40	18.4	18.4	18.4	85	14.7	3	13	248	0.00	29.685 
23:45	18.4	18.4	18.4	85	14.7	3	10	248	0.00	29.680 
23:50	18.6	18.6	18.6	85	14.9	2	7	248	0.00	29.680 
23:55	18.6	18.6	18.6	86	15.1	3	11	248	0.00	29.680 

CoCoRaHS
IN-AL-39
A2 Web Hosting
Creative Commons License
GoDaddy
search engine by freefind advanced

loaded 2018-11-15 18:09:02 • last modified 2010-11-18 10:43:29
Privacy PolicyDisclaimer
• wx.awcolley.com is powered by PmWiki v.2002016 •
• all content (unless otherwise noted) © 2018 A W Colley